preço mandíbula britador em egyp

Sierra Leone Cement

... preco do britador de mandibulas reciclagem na marmoraria, precision micro external grind machine, precision grinding machine in bournemouth uk, precision...

Obter preço

Máquina para Blocos e Pavers Super 10G | SAHARA

Outras Máquinas. Britador de Mandíbula · Correia Transportadora · Misturador Planetário · Pinça para Blocos · ver todos os produtos. Voltar ao topo. Rua Miguel...

Obter preço

Prensa de Tijolos Ecológicos Solo Cimento Manual Modular ...

Outras Máquinas. Britador de Mandíbula · Correia Transportadora · Misturador Planetário · Pinça para Blocos · ver todos os produtos. Voltar ao topo. Rua Miguel...

Obter preço

Máquina para Blocos e Pavers Super 10G | SAHARA

Outras Máquinas. Britador de Mandíbula · Correia Transportadora · Misturador Planetário · Pinça para Blocos · ver todos os produtos. Voltar ao topo. Rua Miguel...

Obter preço

Britador de Mandíbulas - YouTube

23 ago. 2013 ... Principal Característica: PE 150 x 250 Britador de Mandíbulas projetado para britar as rochas mais resistentes e materiais a serem reciclados...

Obter preço

| Carregadeira 980H |

O novo padrão de carregadeiras de tamanho médio.

Obter preço

METAR TAF : RAF Mount Pleasant, Stanley Falkland ... - All Met Sat

METAR: EGYP 132250Z 24014KT 9999 FEW016 BKN030 06/04 Q1012 BLU TEMPO ... TAF: EGYP 131917Z 1321/1415 23025G35KT 9999 SCT025 BECMG...

Obter preço

Britador de Mandíbulas - YouTube

23 ago. 2013 ... Principal Característica: PE 150 x 250 Britador de Mandíbulas projetado para britar as rochas mais resistentes e materiais a serem reciclados...

Obter preço

METAR TAF : RAF Mount Pleasant, Stanley Falkland ... - All Met Sat

TAF: EGYP 111331Z 1115/1209 22020KT 9999 FEW015 SCT025 TEMPO 1115/1121 21025G35KT 6000 SHRA BKN018 TEMPO 1121/1203 24025G35KT...

Obter preço

Sierra Leone Cement

... preco do britador de mandibulas reciclagem na marmoraria, precision micro external grind machine, precision grinding machine in bournemouth uk, precision...

Obter preço

Triturador JAG para Solo Cimento | SAHARA

Outras Máquinas. Britador de Mandíbula · Correia Transportadora · Misturador Planetário · Pinça para Blocos · ver todos os produtos. Voltar ao topo. Rua Miguel...

Obter preço

| Caminhão Fora-de-estrada 775G |

A tem o prazer de apresentar o caminhão fora-de-estrada 775G. Você deve estar se perguntando como, depois de 40 anos de construção de...

Obter preço

METAR TAF : RAF Mount Pleasant, Stanley Falkland ... - All Met Sat

METAR: EGYP 132250Z 24014KT 9999 FEW016 BKN030 06/04 Q1012 BLU TEMPO ... TAF: EGYP 131917Z 1321/1415 23025G35KT 9999 SCT025 BECMG...

Obter preço

Triturador JAG para Solo Cimento | SAHARA

Outras Máquinas. Britador de Mandíbula · Correia Transportadora · Misturador Planetário · Pinça para Blocos · ver todos os produtos. Voltar ao topo. Rua Miguel...

Obter preço

Plantas de Trituração, Mineração, Pedreira, Peneiramento e ...

A WAMGROUP oferece componentes de sistema especializados para plantas de britagem, triagem e micronização em minas e pedreiras. Compartilhar este...

Obter preço

METAR TAF : RAF Mount Pleasant, Stanley Falkland ... - All Met Sat

TAF: EGYP 111331Z 1115/1209 22020KT 9999 FEW015 SCT025 TEMPO 1115/1121 21025G35KT 6000 SHRA BKN018 TEMPO 1121/1203 24025G35KT...

Obter preço

| Caminhão Fora-de-estrada 775G |

A tem o prazer de apresentar o caminhão fora-de-estrada 775G. Você deve estar se perguntando como, depois de 40 anos de construção de...

Obter preço

| Carregadeira 980H |

O novo padrão de carregadeiras de tamanho médio.

Obter preço

Relatório e Contas 2002 - Cimpor

Reabilitação da britagem e entrada em exploração de uma nova moagem ..... O título CIMPOR, após ter atingido um preço máximo de 23,49 euros no dia 10 de Maio ..... Presidente do Conselho de Administração da CEC – Cimpor Egypt for...

Obter preço

Sierra Leone Cement

... preco do britador de mandibulas reciclagem na marmoraria, precision micro external grind machine, precision grinding machine in bournemouth uk, precision...

Obter preço

Máquina para Blocos e Pavers Super 10G | SAHARA

Outras Máquinas. Britador de Mandíbula · Correia Transportadora · Misturador Planetário · Pinça para Blocos · ver todos os produtos. Voltar ao topo. Rua Miguel...

Obter preço

Prensa de Tijolos Ecológicos Solo Cimento Manual Modular ...

Outras Máquinas. Britador de Mandíbula · Correia Transportadora · Misturador Planetário · Pinça para Blocos · ver todos os produtos. Voltar ao topo. Rua Miguel...

Obter preço

Máquina para Blocos e Pavers Super 10G | SAHARA

Outras Máquinas. Britador de Mandíbula · Correia Transportadora · Misturador Planetário · Pinça para Blocos · ver todos os produtos. Voltar ao topo. Rua Miguel...

Obter preço

Britador de Mandíbulas

23 ago. 2013 ... Principal Característica: PE 150 x 250 Britador de Mandíbulas projetado para britar as rochas mais resistentes e materiais a serem reciclados...

Obter preço

| Carregadeira 980H |

O novo padrão de carregadeiras de tamanho médio.

Obter preço

METAR TAF : RAF Mount Pleasant, Stanley Falkland ... - All Met Sat

METAR: EGYP 132250Z 24014KT 9999 FEW016 BKN030 06/04 Q1012 BLU TEMPO ... TAF: EGYP 131917Z 1321/1415 23025G35KT 9999 SCT025 BECMG...

Obter preço

Britador de Mandíbulas

23 ago. 2013 ... Principal Característica: PE 150 x 250 Britador de Mandíbulas projetado para britar as rochas mais resistentes e materiais a serem reciclados...

Obter preço

METAR TAF : RAF Mount Pleasant, Stanley Falkland ... - All Met Sat

TAF: EGYP 111331Z 1115/1209 22020KT 9999 FEW015 SCT025 TEMPO 1115/1121 21025G35KT 6000 SHRA BKN018 TEMPO 1121/1203 24025G35KT...

Obter preço

Sierra Leone Cement

... preco do britador de mandibulas reciclagem na marmoraria, precision micro external grind machine, precision grinding machine in bournemouth uk, precision...

Obter preço

Triturador JAG para Solo Cimento | SAHARA

Outras Máquinas. Britador de Mandíbula · Correia Transportadora · Misturador Planetário · Pinça para Blocos · ver todos os produtos. Voltar ao topo. Rua Miguel...

Obter preço

| Caminhão Fora-de-estrada 775G |

A tem o prazer de apresentar o caminhão fora-de-estrada 775G. Você deve estar se perguntando como, depois de 40 anos de construção de...

Obter preço

METAR TAF : RAF Mount Pleasant, Stanley Falkland ... - All Met Sat

METAR: EGYP 132250Z 24014KT 9999 FEW016 BKN030 06/04 Q1012 BLU TEMPO ... TAF: EGYP 131917Z 1321/1415 23025G35KT 9999 SCT025 BECMG...

Obter preço

Triturador JAG para Solo Cimento | SAHARA

Outras Máquinas. Britador de Mandíbula · Correia Transportadora · Misturador Planetário · Pinça para Blocos · ver todos os produtos. Voltar ao topo. Rua Miguel...

Obter preço

Plantas de Trituração, Mineração, Pedreira, Peneiramento e ...

A WAMGROUP oferece componentes de sistema especializados para plantas de britagem, triagem e micronização em minas e pedreiras. Compartilhar este...

Obter preço

METAR TAF : RAF Mount Pleasant, Stanley Falkland ... - All Met Sat

TAF: EGYP 111331Z 1115/1209 22020KT 9999 FEW015 SCT025 TEMPO 1115/1121 21025G35KT 6000 SHRA BKN018 TEMPO 1121/1203 24025G35KT...

Obter preço

| Caminhão Fora-de-estrada 775G |

A tem o prazer de apresentar o caminhão fora-de-estrada 775G. Você deve estar se perguntando como, depois de 40 anos de construção de...

Obter preço

| Carregadeira 980H |

O novo padrão de carregadeiras de tamanho médio.

Obter preço

Relatório e Contas 2002 - Cimpor

Reabilitação da britagem e entrada em exploração de uma nova moagem ..... O título CIMPOR, após ter atingido um preço máximo de 23,49 euros no dia 10 de Maio ..... Presidente do Conselho de Administração da CEC – Cimpor Egypt for...

Obter preço